Time;durP1;ratioP1;P1;durP2;ratioP2;P2;SDS_P1;SDS_P2;PMS_P1;PMS_P2;Temp;Humidity;BMP_temperature;BMP_pressure;BME280_temperature;BME280_humidity;BME280_pressure;Samples;Min_cycle;Max_cycle;Signal;HPM_P1;HPM_P2
2021/08/07 00:04:23;;;;;;;48.90;45.10;;;;;;;15.44;100.00;100055.59;1971980;73;33041;-73
2021/08/07 00:09:54;;;;;;;49.67;45.57;;;;;;;15.48;100.00;100056.55;1971817;73;32905;-73
2021/08/07 00:15:19;;;;;;;49.13;45.03;;;;;;;15.55;100.00;100046.24;1972007;73;33512;-73
2021/08/07 00:20:43;;;;;;;49.90;46.00;;;;;;;15.56;100.00;100043.69;1970274;71;33611;-72
2021/08/07 00:26:08;;;;;;;49.03;44.83;;;;;;;15.70;100.00;100038.64;1971898;73;32923;-72
2021/08/07 00:31:32;;;;;;;47.80;43.73;;;;;;;15.51;100.00;100033.26;1971813;73;32914;-74
2021/08/07 00:36:57;;;;;;;46.80;42.90;;;;;;;15.65;100.00;100030.47;1971813;73;32904;-73
2021/08/07 00:42:22;;;;;;;46.40;42.50;;;;;;;15.67;100.00;100034.31;1971857;73;32974;-73
2021/08/07 00:47:47;;;;;;;46.53;42.70;;;;;;;15.80;100.00;100027.05;1971985;73;33419;-73
2021/08/07 00:53:11;;;;;;;47.73;43.47;;;;;;;15.80;100.00;100026.23;1971887;73;33005;-72
2021/08/07 00:58:37;;;;;;;49.20;45.07;;;;;;;15.74;100.00;100012.21;1971899;73;33052;-72
2021/08/07 01:04:06;;;;;;;49.80;45.73;;;;;;;15.68;100.00;100004.58;1972033;73;33366;-73
2021/08/07 01:09:39;;;;;;;47.13;42.77;;;;;;;15.58;100.00;100000.77;1971792;73;32906;-73
2021/08/07 01:15:09;;;;;;;50.70;46.47;;;;;;;15.68;100.00;99994.78;1972074;73;32972;-72
2021/08/07 01:20:37;;;;;;;47.07;43.07;;;;;;;15.76;100.00;99999.50;1971828;73;32915;-72
2021/08/07 01:26:06;;;;;;;46.90;43.17;;;;;;;15.78;100.00;99986.57;1971802;73;32933;-73
2021/08/07 01:31:53;;;;;;;48.83;44.77;;;;;;;15.88;100.00;99987.54;2016126;71;33366;-73
2021/08/07 01:37:20;;;;;;;46.20;42.33;;;;;;;15.96;100.00;99986.65;1971807;73;32899;-73
2021/08/07 01:42:45;;;;;;;46.27;42.53;;;;;;;16.00;100.00;99977.01;1971996;73;33041;-72
2021/08/07 01:51:20;;;;;;;45.50;41.80;;;;;;;15.95;100.00;99969.63;2060877;69;33120;-72
2021/08/07 01:53:53;;;;;;;46.27;42.37;;;;;;;15.93;100.00;99975.56;2017301;70;26305;-72
2021/08/07 01:56:28;;;;;;;48.70;44.90;;;;;;;15.97;100.00;99977.09;1934725;73;26269;-73
2021/08/07 01:59:02;;;;;;;45.33;41.63;;;;;;;16.02;100.00;99972.69;1937673;73;26174;-72
2021/08/07 02:01:33;;;;;;;49.00;45.30;;;;;;;16.03;100.00;99967.91;1935188;73;26639;-73
2021/08/07 02:04:05;;;;;;;45.43;41.73;;;;;;;16.06;100.00;99954.03;1947990;73;26253;-72
2021/08/07 02:06:38;;;;;;;46.23;42.23;;;;;;;16.06;100.00;99957.41;1946173;73;26218;-72
2021/08/07 02:09:09;;;;;;;46.97;43.10;;;;;;;16.09;100.00;99955.34;1937571;73;26210;-73
2021/08/07 02:11:41;;;;;;;45.00;41.50;;;;;;;16.19;100.00;99955.72;1947775;73;26246;-72
2021/08/07 02:14:11;;;;;;;46.83;42.90;;;;;;;16.09;100.00;99950.53;1976713;72;26305;-72
2021/08/07 02:16:43;;;;;;;46.40;42.60;;;;;;;16.17;100.00;99948.23;1912064;73;24120;-71
2021/08/07 02:19:15;;;;;;;46.10;42.23;;;;;;;16.12;100.00;99940.64;1941643;74;26270;-72
2021/08/07 02:21:45;;;;;;;44.63;41.00;;;;;;;16.18;100.00;99947.65;1936650;73;26211;-72
2021/08/07 02:24:15;;;;;;;46.83;43.33;;;;;;;16.18;100.00;99947.65;1897907;74;26332;-73
2021/08/07 02:26:46;;;;;;;47.30;43.60;;;;;;;16.14;100.00;99938.30;1978130;72;26158;-73
2021/08/07 02:29:16;;;;;;;48.03;44.33;;;;;;;16.12;100.00;99935.03;1987717;72;24209;-73
2021/08/07 02:31:48;;;;;;;47.87;43.60;;;;;;;16.14;100.00;99934.09;1914527;74;26625;-72
2021/08/07 02:34:21;;;;;;;47.67;43.97;;;;;;;16.16;100.00;99931.78;1979687;72;26264;-72
2021/08/07 02:36:53;;;;;;;46.93;43.30;;;;;;;16.16;100.00;99929.80;1912878;74;26263;-72
2021/08/07 02:39:24;;;;;;;48.17;44.03;;;;;;;16.12;100.00;99922.43;1912990;74;26285;-72
2021/08/07 02:41:55;;;;;;;46.47;42.73;;;;;;;16.08;100.00;99929.30;1913611;74;26296;-72
2021/08/07 02:44:26;;;;;;;46.00;42.67;;;;;;;16.06;100.00;99925.20;1981273;72;26253;-72
2021/08/07 02:46:57;;;;;;;44.83;41.40;;;;;;;16.09;100.00;99919.72;1912855;74;26776;-71
2021/08/07 02:49:28;;;;;;;49.13;45.13;;;;;;;16.10;100.00;99925.56;1911781;73;26683;-71
2021/08/07 02:51:59;;;;;;;47.00;43.10;;;;;;;16.08;100.00;99918.10;1910231;75;26194;-71
2021/08/07 02:54:29;;;;;;;46.70;43.13;;;;;;;16.05;100.00;99921.57;1910129;75;26659;-71
2021/08/07 02:57:00;;;;;;;46.43;42.83;;;;;;;16.00;100.00;99917.61;1910228;74;26261;-71
2021/08/07 02:59:30;;;;;;;48.47;44.50;;;;;;;15.97;100.00;99918.27;1910248;74;26227;-72
2021/08/07 03:02:01;;;;;;;48.53;44.73;;;;;;;15.93;100.00;99920.13;1909721;74;26212;-72
2021/08/07 03:04:31;;;;;;;48.10;44.40;;;;;;;15.94;100.00;99921.77;1909623;74;26642;-72
2021/08/07 03:07:01;;;;;;;49.80;46.30;;;;;;;15.90;100.00;99927.82;1909564;74;26191;-72
2021/08/07 03:09:31;;;;;;;48.70;45.00;;;;;;;15.89;100.00;99913.58;1909632;74;26249;-72
2021/08/07 03:12:01;;;;;;;49.13;45.53;;;;;;;15.90;100.00;99913.24;1909714;74;26286;-72
2021/08/07 03:14:31;;;;;;;49.27;45.47;;;;;;;15.91;100.00;99914.06;1909634;74;26286;-71
2021/08/07 03:17:01;;;;;;;48.33;44.30;;;;;;;15.86;100.00;99908.67;1909479;75;26179;-72
2021/08/07 03:19:32;;;;;;;49.40;45.83;;;;;;;15.81;100.00;99904.67;1909518;74;26270;-71
2021/08/07 03:22:02;;;;;;;47.70;44.07;;;;;;;15.78;100.00;99903.97;1909462;74;26743;-71
2021/08/07 03:24:32;;;;;;;48.37;44.67;;;;;;;15.75;100.00;99894.83;1909510;74;26635;-71
2021/08/07 03:27:02;;;;;;;48.07;44.40;;;;;;;15.82;100.00;99888.94;1909551;74;26186;-71
2021/08/07 03:29:32;;;;;;;46.77;43.30;;;;;;;15.78;100.00;99887.99;1909401;74;26187;-72
2021/08/07 03:32:02;;;;;;;47.80;43.93;;;;;;;15.76;100.00;99895.08;1909606;74;26290;-73
2021/08/07 03:34:32;;;;;;;48.77;45.20;;;;;;;15.74;100.00;99889.02;1909583;74;26788;-72
2021/08/07 03:37:02;;;;;;;48.43;44.83;;;;;;;15.74;100.00;99894.62;1909570;75;26314;-72
2021/08/07 03:39:32;;;;;;;47.70;43.77;;;;;;;15.69;100.00;99896.22;1909529;74;26233;-72
2021/08/07 03:42:02;;;;;;;48.47;44.80;;;;;;;15.60;100.00;99896.87;1909556;74;26186;-72
2021/08/07 03:44:32;;;;;;;50.07;46.57;;;;;;;15.59;100.00;99891.84;1909630;75;26281;-71
2021/08/07 03:47:02;;;;;;;52.43;48.07;;;;;;;15.67;100.00;99895.16;1909544;75;26755;-72
2021/08/07 03:49:32;;;;;;;48.83;45.03;;;;;;;15.69;100.00;99890.62;1909529;74;26256;-71
2021/08/07 03:52:02;;;;;;;51.03;47.17;;;;;;;15.63;100.00;99890.58;1909641;73;26730;-72
2021/08/07 03:54:32;;;;;;;52.17;48.17;;;;;;;15.61;100.00;99883.94;1909518;74;26256;-72
2021/08/07 03:57:02;;;;;;;50.60;46.93;;;;;;;15.63;100.00;99880.78;1909541;74;26179;-72
2021/08/07 03:59:32;;;;;;;50.03;46.40;;;;;;;15.75;100.00;99878.03;1909528;74;26611;-72
2021/08/07 04:04:57;;;;;;;48.00;44.20;;;;;;;15.73;100.00;99869.17;1971848;73;32972;-73
2021/08/07 04:10:21;;;;;;;47.67;44.17;;;;;;;15.65;100.00;99872.88;1971992;73;32899;-72
2021/08/07 04:15:46;;;;;;;46.57;43.07;;;;;;;15.70;100.00;99865.67;1971972;73;33583;-73
2021/08/07 04:21:10;;;;;;;51.80;48.10;;;;;;;15.72;100.00;99868.35;1971746;71;32942;-73
2021/08/07 04:26:35;;;;;;;49.33;45.63;;;;;;;15.64;100.00;99861.43;1971990;73;32935;-74
2021/08/07 04:32:01;;;;;;;51.73;48.10;;;;;;;15.60;100.00;99858.50;1971959;73;33363;-74
2021/08/07 04:37:25;;;;;;;50.37;46.80;;;;;;;15.51;100.00;99860.55;1971978;73;33025;-72
2021/08/07 04:43:09;;;;;;;50.13;46.47;;;;;;;15.53;100.00;99854.05;2016160;71;32879;-73
2021/08/07 04:48:34;;;;;;;48.63;45.13;;;;;;;15.46;100.00;99855.95;1972027;73;33393;-72
2021/08/07 04:53:58;;;;;;;49.53;46.07;;;;;;;15.42;100.00;99852.20;1971797;73;33033;-73
2021/08/07 04:59:22;;;;;;;48.47;44.67;;;;;;;15.42;100.00;99850.80;1972163;73;32889;-74
2021/08/07 05:04:49;;;;;;;50.63;46.63;;;;;;;15.37;100.00;99841.20;1972059;73;33422;-72
2021/08/07 05:10:14;;;;;;;51.40;48.07;;;;;;;15.43;100.00;99847.42;1971814;73;33052;-73
2021/08/07 05:15:39;;;;;;;50.93;47.50;;;;;;;15.41;100.00;99838.54;1971839;73;32961;-72
2021/08/07 05:21:03;;;;;;;52.43;48.70;;;;;;;15.45;100.00;99834.72;1963820;73;33028;-74
2021/08/07 05:26:28;;;;;;;49.13;45.90;;;;;;;15.49;100.00;99835.66;1972014;72;32958;-73
2021/08/07 05:31:52;;;;;;;51.27;47.67;;;;;;;15.54;100.00;99844.47;1971779;73;32900;-74
2021/08/07 05:37:17;;;;;;;50.83;47.17;;;;;;;15.69;100.00;99848.05;1971866;73;32992;-74
2021/08/07 05:42:42;;;;;;;49.93;46.17;;;;;;;15.79;100.00;99845.38;1972036;73;32909;-73
2021/08/07 05:48:07;;;;;;;50.07;46.47;;;;;;;15.80;100.00;99848.42;1971811;73;32986;-74
2021/08/07 05:53:38;;;;;;;50.93;47.33;;;;;;;15.94;100.00;99843.35;1971972;73;33489;-74
2021/08/07 05:59:02;;;;;;;50.50;47.10;;;;;;;15.84;100.00;99840.39;1972141;73;32985;-72
2021/08/07 06:04:27;;;;;;;49.97;46.47;;;;;;;15.84;100.00;99828.38;1972088;73;32952;-73
2021/08/07 06:09:54;;;;;;;48.87;45.40;;;;;;;15.85;100.00;99823.84;1971968;73;30959;-72
2021/08/07 06:15:18;;;;;;;49.37;45.83;;;;;;;15.89;100.00;99814.98;1971814;73;32987;-74
2021/08/07 06:20:43;;;;;;;51.37;48.07;;;;;;;15.77;100.00;99807.12;1967926;73;32898;-72
2021/08/07 06:26:09;;;;;;;52.30;48.80;;;;;;;15.79;100.00;99803.37;1972090;73;33460;-73
2021/08/07 06:31:35;;;;;;;51.83;48.33;;;;;;;15.61;100.00;99801.95;1972046;73;33020;-72
2021/08/07 06:36:59;;;;;;;49.67;46.33;;;;;;;15.57;100.00;99789.22;1971863;73;33491;-72
2021/08/07 06:42:24;;;;;;;48.67;45.07;;;;;;;15.54;100.00;99787.67;1972018;73;33423;-72
2021/08/07 06:47:48;;;;;;;50.07;46.57;;;;;;;15.57;100.00;99796.22;1971911;73;33065;-74
2021/08/07 06:53:13;;;;;;;49.20;45.40;;;;;;;15.50;100.00;99801.53;1971820;72;32966;-72
2021/08/07 06:58:37;;;;;;;48.97;45.67;;;;;;;15.51;100.00;99787.78;1972062;73;32896;-74
2021/08/07 07:04:02;;;;;;;49.90;46.50;;;;;;;15.38;100.00;99771.50;1971762;73;33053;-73
2021/08/07 07:09:27;;;;;;;48.53;45.13;;;;;;;15.42;100.00;99793.44;1971850;73;32891;-71
2021/08/07 07:14:52;;;;;;;47.80;44.50;;;;;;;15.53;100.00;99787.45;1971836;72;32902;-73
2021/08/07 07:20:37;;;;;;;48.67;45.27;;;;;;;15.33;100.00;99802.48;2016271;70;32931;-72
2021/08/07 07:26:02;;;;;;;48.03;44.83;;;;;;;15.43;100.00;99787.26;1971920;73;32896;-73
2021/08/07 07:31:27;;;;;;;49.57;46.30;;;;;;;15.32;100.00;99796.64;1971769;73;33177;-73
2021/08/07 07:36:52;;;;;;;49.30;45.80;;;;;;;15.23;100.00;99801.48;1971829;73;32977;-72
2021/08/07 07:42:17;;;;;;;47.17;43.93;;;;;;;15.20;100.00;99799.38;1971822;73;32967;-74
2021/08/07 07:47:41;;;;;;;47.80;44.40;;;;;;;15.33;100.00;99795.48;1972249;73;33432;-72
2021/08/07 07:53:07;;;;;;;47.70;44.20;;;;;;;15.24;100.00;99800.33;1972077;73;33477;-72
2021/08/07 07:58:32;;;;;;;46.87;43.80;;;;;;;15.24;100.00;99791.12;1971857;73;32921;-73
2021/08/07 08:03:56;;;;;;;50.50;47.20;;;;;;;15.26;100.00;99779.84;1972055;73;33471;-73
2021/08/07 08:09:20;;;;;;;48.83;45.53;;;;;;;15.28;100.00;99760.72;1971839;73;33054;-74
2021/08/07 08:14:45;;;;;;;47.43;44.50;;;;;;;15.37;100.00;99774.63;1971834;73;32969;-74
2021/08/07 08:20:11;;;;;;;47.93;44.73;;;;;;;15.36;100.00;99764.02;1971792;73;32998;-73
2021/08/07 08:25:37;;;;;;;47.60;44.60;;;;;;;15.40;100.00;99765.56;1971838;73;32962;-74
2021/08/07 08:31:03;;;;;;;45.73;42.73;;;;;;;15.63;100.00;99761.23;1971794;73;32947;-71
2021/08/07 08:36:28;;;;;;;48.50;45.40;;;;;;;15.34;100.00;99757.95;1971820;73;33100;-74
2021/08/07 08:41:52;;;;;;;48.63;45.53;;;;;;;15.36;100.00;99758.42;1971830;73;32969;-73
2021/08/07 08:47:20;;;;;;;46.97;43.87;;;;;;;15.40;100.00;99735.58;1971819;73;32953;-72
2021/08/07 08:52:46;;;;;;;45.10;42.10;;;;;;;15.48;100.00;99728.28;1971818;73;33128;-73
2021/08/07 08:58:10;;;;;;;44.23;41.23;;;;;;;15.58;100.00;99722.26;1971851;73;33003;-72
2021/08/07 09:03:35;;;;;;;47.20;44.20;;;;;;;15.58;100.00;99722.26;1972048;73;32981;-72
2021/08/07 09:09:08;;;;;;;47.90;44.80;;;;;;;15.48;100.00;99712.31;1972021;73;33476;-71
2021/08/07 09:14:35;;;;;;;45.60;42.60;;;;;;;15.41;100.00;99705.05;1971865;73;32984;-73
2021/08/07 09:20:09;;;;;;;46.37;43.13;;;;;;;15.48;100.00;99693.30;1972024;73;33571;-74
2021/08/07 09:25:38;;;;;;;44.30;41.50;;;;;;;15.49;100.00;99694.91;1971801;73;33685;-72
2021/08/07 09:31:09;;;;;;;42.00;39.20;;;;;;;15.73;100.00;99697.81;1972139;73;33419;-74
2021/08/07 09:36:49;;;;;;;42.97;39.87;;;;;;;15.72;100.00;99700.38;1971790;72;33075;-74
2021/08/07 09:42:19;;;;;;;41.87;39.07;;;;;;;15.86;100.00;99690.25;1972024;73;33451;-74
2021/08/07 09:48:03;;;;;;;45.00;42.07;;;;;;;15.97;100.00;99679.38;1972050;73;33019;-74
2021/08/07 09:53:28;;;;;;;41.67;38.97;;;;;;;16.03;100.00;99684.42;1971762;73;32952;-72
2021/08/07 09:59:09;;;;;;;44.13;41.33;;;;;;;16.19;100.00;99686.75;1971905;73;33028;-74
2021/08/07 10:04:40;;;;;;;42.73;39.43;;;;;;;16.27;100.00;99673.20;1971994;73;33015;-73
2021/08/07 10:10:20;;;;;;;35.93;33.43;;;;;;;16.23;100.00;99663.04;1971862;73;32918;-73
2021/08/07 10:15:46;;;;;;;40.00;37.30;;;;;;;16.70;100.00;99666.14;1971882;73;32986;-75
2021/08/07 10:21:11;;;;;;;42.70;39.87;;;;;;;17.32;100.00;99666.13;1962865;73;31005;-71
2021/08/07 10:26:38;;;;;;;50.47;47.17;;;;;;;17.54;100.00;99662.73;1971807;73;32991;-73
2021/08/07 10:32:04;;;;;;;43.23;40.37;;;;;;;17.67;100.00;99660.89;1971816;73;31004;-74
2021/08/07 10:37:31;;;;;;;37.53;35.23;;;;;;;18.08;100.00;99657.31;1971818;73;30942;-75
2021/08/07 10:42:57;;;;;;;62.90;59.20;;;;;;;17.95;100.00;99654.38;1971876;73;30970;-75
2021/08/07 10:48:40;;;;;;;62.97;59.27;;;;;;;18.31;100.00;99659.70;1972005;73;33423;-73
2021/08/07 10:54:38;;;;;;;41.90;39.40;;;;;;;18.39;100.00;99655.86;1972056;73;33469;-71
2021/08/07 11:00:23;;;;;;;55.83;52.63;;;;;;;18.63;100.00;99645.79;1972017;73;33460;-71
2021/08/07 11:06:06;;;;;;;43.63;40.93;;;;;;;18.70;100.00;99641.52;1972011;73;30977;-73
2021/08/07 11:11:32;;;;;;;43.77;41.07;;;;;;;18.87;100.00;99625.61;1971819;73;33078;-74
2021/08/07 11:14:40;;;;;;;42.73;40.13;;;;;;;19.01;100.00;99633.73;1934737;74;24134;-72
2021/08/07 11:20:44;;;;;;;44.83;42.33;;;;;;;18.98;100.00;99621.00;1971832;73;31077;-74
2021/08/07 11:26:11;;;;;;;46.33;43.73;;;;;;;18.97;100.00;99603.88;1972089;73;31044;-74
2021/08/07 11:32:17;;;;;;;44.93;42.33;;;;;;;19.13;100.00;99582.08;1972105;73;30984;-74
2021/08/07 11:37:56;;;;;;;46.83;44.23;;;;;;;19.14;100.00;99592.75;1971819;73;31053;-73
2021/08/07 11:40:34;;;;;;;45.47;42.90;;;;;;;18.95;100.00;99587.98;1933321;74;24132;-75
2021/08/07 11:46:08;;;;;;;42.40;40.00;;;;;;;19.08;100.00;99581.00;1972058;73;31103;-73
2021/08/07 11:51:36;;;;;;;44.70;42.20;;;;;;;19.50;100.00;99571.95;1971843;73;30969;-73
2021/08/07 11:57:01;;;;;;;45.70;43.20;;;;;;;19.47;100.00;99581.73;1971991;72;31109;-73
2021/08/07 12:02:25;;;;;;;40.47;37.87;;;;;;;19.01;100.00;99575.22;1971940;73;31081;-75
2021/08/07 12:08:09;;;;;;;42.00;39.30;;;;;;;19.06;100.00;99572.10;1971991;73;31517;-71
2021/08/07 12:13:43;;;;;;;45.03;42.53;;;;;;;19.41;100.00;99555.87;1972006;73;30982;-73
2021/08/07 12:19:11;;;;;;;43.20;40.80;;;;;;;19.34;100.00;99550.72;1972006;73;31075;-75
2021/08/07 12:24:36;;;;;;;42.47;39.93;;;;;;;19.48;100.00;99529.25;1972049;73;31485;-74
2021/08/07 12:30:08;;;;;;;40.07;37.70;;;;;;;19.56;100.00;99521.73;1971855;73;31102;-73
2021/08/07 12:35:33;;;;;;;39.20;36.80;;;;;;;19.75;100.00;99524.47;1971837;73;30969;-74
2021/08/07 12:41:00;;;;;;;39.67;37.47;;;;;;;20.11;100.00;99508.09;1971908;73;30962;-74
2021/08/07 12:46:26;;;;;;;34.93;33.03;;;;;;;20.18;100.00;99502.53;1971843;72;30911;-73
2021/08/07 12:51:54;;;;;;;31.87;30.27;;;;;;;20.28;100.00;99498.43;1972017;73;31482;-74
2021/08/07 12:57:23;;;;;;;45.50;43.17;;;;;;;20.27;100.00;99496.02;1971823;73;31003;-74
2021/08/07 13:03:04;;;;;;;32.40;30.70;;;;;;;20.36;100.00;99499.39;1971883;73;31041;-74
2021/08/07 13:08:33;;;;;;;30.10;28.60;;;;;;;20.20;100.00;99499.53;1972047;73;31533;-74
2021/08/07 13:14:11;;;;;;;29.83;28.33;;;;;;;20.24;100.00;99498.98;1971845;73;30982;-73
2021/08/07 13:19:47;;;;;;;31.83;30.23;;;;;;;20.38;100.00;99496.98;1971880;73;30942;-74
2021/08/07 13:25:18;;;;;;;31.90;29.77;;;;;;;20.23;100.00;99502.20;1971953;73;31001;-70
2021/08/07 13:30:49;;;;;;;30.23;28.73;;;;;;;20.29;100.00;99507.15;1972176;73;31618;-74
2021/08/07 13:36:21;;;;;;;31.03;29.53;;;;;;;20.33;100.00;99504.37;1972084;73;31024;-72
2021/08/07 13:41:46;;;;;;;29.37;27.90;;;;;;;20.36;100.00;99512.90;1971880;73;31006;-74
2021/08/07 13:47:11;;;;;;;31.67;30.17;;;;;;;20.35;100.00;99516.09;1971787;73;30946;-74
2021/08/07 13:52:35;;;;;;;31.60;29.97;;;;;;;20.37;100.00;99526.38;1972082;73;33400;-73
2021/08/07 13:58:02;;;;;;;32.63;31.03;;;;;;;20.47;100.00;99517.84;1971844;73;31001;-73
2021/08/07 14:03:27;;;;;;;30.70;29.20;;;;;;;20.20;100.00;99529.14;1971900;73;30941;-73
2021/08/07 14:08:52;;;;;;;36.17;34.17;;;;;;;20.24;100.00;99527.78;1971798;73;30970;-74
2021/08/07 14:14:17;;;;;;;36.20;34.27;;;;;;;20.01;100.00;99543.38;1971826;73;30989;-74
2021/08/07 14:19:42;;;;;;;33.40;31.50;;;;;;;19.97;100.00;99536.28;1972132;73;33399;-71
2021/08/07 14:25:08;;;;;;;52.63;49.93;;;;;;;19.92;100.00;99536.61;1971845;73;31059;-73
2021/08/07 14:30:33;;;;;;;34.03;32.13;;;;;;;20.17;100.00;99522.05;1971833;73;31051;-74
2021/08/07 14:35:58;;;;;;;38.02;36.15;;;;;;;20.38;100.00;99526.59;1955870;73;27996;-74
2021/08/07 14:41:23;;;;;;;32.47;30.77;;;;;;;20.36;100.00;99518.54;1972054;73;31489;-74
2021/08/07 14:46:51;;;;;;;33.10;31.47;;;;;;;20.47;100.00;99520.66;1972081;73;31459;-78
2021/08/07 14:52:16;;;;;;;33.37;31.67;;;;;;;20.54;100.00;99519.36;1971884;73;30943;-73
2021/08/07 14:57:44;;;;;;;34.10;32.20;;;;;;;20.36;100.00;99524.77;1972028;73;31411;-70
2021/08/07 15:03:13;;;;;;;34.97;32.90;;;;;;;20.35;100.00;99528.78;1972151;73;30923;-76
2021/08/07 15:08:38;;;;;;;33.97;32.27;;;;;;;20.49;100.00;99530.38;1971846;73;30942;-75
2021/08/07 15:14:03;;;;;;;34.63;32.53;;;;;;;20.13;100.00;99521.19;1972174;73;31436;-72
2021/08/07 15:19:29;;;;;;;33.00;31.33;;;;;;;20.32;100.00;99536.61;1972053;72;30958;-75
2021/08/07 15:24:56;;;;;;;34.20;32.60;;;;;;;20.31;100.00;99529.33;1971816;73;30964;-72
2021/08/07 15:30:23;;;;;;;35.80;34.00;;;;;;;20.33;100.00;99519.88;1972147;73;31521;-73
2021/08/07 15:35:48;;;;;;;34.83;33.00;;;;;;;20.36;100.00;99520.55;1971918;73;31096;-72
2021/08/07 15:41:12;;;;;;;35.80;34.00;;;;;;;19.95;100.00;99535.02;1971985;73;30931;-71
2021/08/07 15:46:37;;;;;;;35.53;33.63;;;;;;;20.06;100.00;99535.20;1972190;73;31532;-72
2021/08/07 15:52:01;;;;;;;35.60;33.67;;;;;;;20.22;100.00;99528.18;1971935;73;31005;-74
2021/08/07 15:57:26;;;;;;;35.53;33.83;;;;;;;20.08;100.00;99542.06;1972154;72;30916;-75
2021/08/07 16:02:51;;;;;;;34.77;32.97;;;;;;;20.13;100.00;99547.97;1971825;73;30990;-71
2021/08/07 16:08:16;;;;;;;34.30;32.23;;;;;;;20.36;100.00;99544.52;1971867;73;30925;-73
2021/08/07 16:13:40;;;;;;;33.50;31.70;;;;;;;20.34;100.00;99558.17;1972121;73;30954;-74
2021/08/07 16:19:05;;;;;;;32.50;30.77;;;;;;;20.21;100.00;99558.97;1972094;73;31472;-74
2021/08/07 16:24:32;;;;;;;34.43;32.63;;;;;;;19.94;100.00;99578.48;1972137;73;31465;-74
2021/08/07 16:30:00;;;;;;;38.37;36.50;;;;;;;19.90;100.00;99586.89;1971846;73;30920;-75
2021/08/07 16:35:23;;;;;;;39.63;37.43;;;;;;;19.88;100.00;99587.88;1972026;73;33418;-72
2021/08/07 16:40:49;;;;;;;40.87;38.70;;;;;;;20.00;100.00;99598.94;1971939;73;31018;-72
2021/08/07 16:46:20;;;;;;;44.13;41.83;;;;;;;20.44;100.00;99602.05;1971863;73;30976;-72
2021/08/07 16:51:45;;;;;;;40.07;37.97;;;;;;;20.47;100.00;99599.05;1971800;73;31036;-75
2021/08/07 16:57:11;;;;;;;40.97;38.67;;;;;;;20.25;100.00;99603.54;1971893;73;31038;-72
2021/08/07 17:02:37;;;;;;;42.90;40.63;;;;;;;20.29;100.00;99610.08;1961726;72;30955;-73
2021/08/07 17:08:02;;;;;;;41.37;39.27;;;;;;;20.22;100.00;99622.64;1971904;73;31563;-73
2021/08/07 17:13:27;;;;;;;43.83;41.53;;;;;;;19.93;100.00;99637.48;1971782;73;31075;-74
2021/08/07 17:19:14;;;;;;;45.77;43.03;;;;;;;19.62;100.00;99645.59;1971665;73;31046;-73
2021/08/07 17:25:03;;;;;;;46.30;43.60;;;;;;;19.18;100.00;99637.27;1971605;73;30994;-77
2021/08/07 17:30:32;;;;;;;47.10;44.10;;;;;;;19.64;100.00;99687.48;1971998;73;31460;-76
2021/08/07 17:35:57;;;;;;;48.33;45.27;;;;;;;19.52;100.00;99692.67;1971978;73;31064;-77
2021/08/07 17:41:28;;;;;;;45.40;42.70;;;;;;;19.61;100.00;99710.75;1951640;73;31057;-77
2021/08/07 17:46:52;;;;;;;46.93;44.27;;;;;;;19.63;100.00;99711.20;1971947;73;30975;-77
2021/08/07 17:52:17;;;;;;;45.53;42.93;;;;;;;19.59;100.00;99706.91;1971887;73;30968;-74
2021/08/07 17:58:02;;;;;;;46.20;43.53;;;;;;;19.66;100.00;99705.63;2016080;71;30957;-72
2021/08/07 18:03:27;;;;;;;44.03;41.47;;;;;;;19.55;100.00;99712.45;1971791;73;31031;-74
2021/08/07 18:08:52;;;;;;;46.10;43.50;;;;;;;19.58;100.00;99730.62;1971709;73;31000;-74
2021/08/07 18:14:17;;;;;;;46.23;43.43;;;;;;;19.44;100.00;99748.64;1971818;73;31015;-71
2021/08/07 18:19:42;;;;;;;47.03;44.13;;;;;;;19.55;100.00;99753.30;1971771;73;30971;-73
2021/08/07 18:25:09;;;;;;;45.70;42.90;;;;;;;19.53;100.00;99766.13;1971841;72;31101;-74
2021/08/07 18:37:45;;;;;;;42.97;40.67;;;;;;;19.40;100.00;99781.52;1977030;71;24130;-77
2021/08/07 18:40:21;;;;;;;43.57;40.33;;;;;;;19.33;100.00;99793.46;1940288;73;24667;-75
2021/08/07 18:42:52;;;;;;;43.50;40.77;;;;;;;19.39;100.00;99799.00;1964401;72;24237;-72
2021/08/07 18:45:22;;;;;;;43.40;40.90;;;;;;;19.31;100.00;99797.81;1937886;72;24212;-73
2021/08/07 18:47:52;;;;;;;43.63;40.93;;;;;;;19.28;100.00;99807.83;1986483;72;24143;-72
2021/08/07 18:50:23;;;;;;;44.20;41.60;;;;;;;19.16;100.00;99809.38;1963157;72;26648;-75
2021/08/07 18:52:53;;;;;;;43.83;41.30;;;;;;;19.15;100.00;99813.95;1911780;74;24181;-75
2021/08/07 18:55:23;;;;;;;44.57;41.97;;;;;;;19.14;100.00;99822.98;1985616;70;24601;-75
2021/08/07 19:00:48;;;;;;;40.43;38.23;;;;;;;19.08;100.00;99823.85;1971841;73;30974;-74
2021/08/07 19:06:13;;;;;;;42.10;39.70;;;;;;;19.03;100.00;99828.38;1971995;73;33458;-73
2021/08/07 19:11:44;;;;;;;40.83;38.43;;;;;;;19.02;100.00;99838.00;1971909;72;31586;-72
2021/08/07 19:17:09;;;;;;;41.00;38.40;;;;;;;18.87;100.00;99851.49;1971792;73;31070;-73
2021/08/07 19:22:34;;;;;;;40.57;38.33;;;;;;;18.65;100.00;99854.98;1972169;73;31511;-76
2021/08/07 19:28:01;;;;;;;38.10;36.00;;;;;;;18.53;100.00;99866.30;1972002;73;31131;-76
2021/08/07 19:33:26;;;;;;;40.80;38.47;;;;;;;18.46;100.00;99868.91;1971770;73;30950;-74
2021/08/07 19:39:10;;;;;;;41.57;39.07;;;;;;;18.32;100.00;99875.55;2016323;71;33316;-72
2021/08/07 19:44:35;;;;;;;42.97;40.47;;;;;;;18.29;100.00;99897.36;1971973;73;33466;-69
2021/08/07 19:49:59;;;;;;;41.90;39.47;;;;;;;18.15;100.00;99914.06;1972026;73;33390;-71
2021/08/07 19:55:26;;;;;;;42.60;40.27;;;;;;;18.11;100.00;99918.77;1971995;73;30998;-71
2021/08/07 20:00:51;;;;;;;44.17;41.47;;;;;;;18.06;100.00;99932.25;1971905;72;31082;-70
2021/08/07 20:06:16;;;;;;;42.07;39.57;;;;;;;18.00;100.00;99949.15;1971857;73;31089;-71
2021/08/07 20:11:41;;;;;;;42.87;40.23;;;;;;;17.89;100.00;99964.85;1972091;73;31538;-71
2021/08/07 20:17:07;;;;;;;44.30;41.53;;;;;;;17.91;100.00;99968.14;1972270;73;33377;-70
2021/08/07 20:22:31;;;;;;;42.43;39.77;;;;;;;17.82;100.00;99978.11;1960915;71;30985;-73
2021/08/07 20:27:56;;;;;;;43.17;40.30;;;;;;;17.77;100.00;99983.97;1971861;73;30979;-70
2021/08/07 20:33:21;;;;;;;42.10;39.60;;;;;;;17.82;100.00;99994.97;1972142;73;31004;-70
2021/08/07 20:38:45;;;;;;;41.53;38.83;;;;;;;17.58;100.00;100008.48;1971802;73;30970;-71
2021/08/07 20:44:10;;;;;;;42.70;40.10;;;;;;;17.57;100.00;100016.63;1971815;73;31034;-70
2021/08/07 20:49:35;;;;;;;44.37;41.30;;;;;;;17.64;100.00;100027.29;1972071;73;31043;-76
2021/08/07 20:55:01;;;;;;;45.17;42.47;;;;;;;17.55;100.00;100044.81;1971957;73;31061;-72
2021/08/07 21:00:26;;;;;;;45.53;42.53;;;;;;;17.60;100.00;100044.61;1971992;73;30956;-74
2021/08/07 21:05:51;;;;;;;43.90;41.00;;;;;;;17.52;100.00;100055.34;1971827;73;31076;-70
2021/08/07 21:11:21;;;;;;;44.53;41.73;;;;;;;17.58;100.00;100060.43;1972035;73;31534;-69
2021/08/07 21:16:46;;;;;;;43.97;41.23;;;;;;;17.46;100.00;100064.58;1971812;73;31051;-70
2021/08/07 21:22:12;;;;;;;44.23;41.43;;;;;;;17.52;100.00;100071.62;1971731;73;31119;-70
2021/08/07 21:27:42;;;;;;;42.60;40.13;;;;;;;17.54;100.00;100072.06;1971866;73;30972;-71
2021/08/07 21:33:10;;;;;;;43.27;40.47;;;;;;;17.62;100.00;100080.20;1971804;73;31022;-70
2021/08/07 21:38:34;;;;;;;43.93;41.23;;;;;;;17.51;100.00;100081.20;1972024;73;31545;-71
2021/08/07 21:44:01;;;;;;;42.53;40.03;;;;;;;17.45;100.00;100096.66;1972084;73;31509;-74
2021/08/07 21:49:28;;;;;;;43.47;40.77;;;;;;;17.43;100.00;100091.96;1972016;73;32923;-75
2021/08/07 21:54:53;;;;;;;45.97;42.97;;;;;;;17.51;100.00;100104.25;1971909;72;31069;-71
2021/08/07 22:03:35;;;;;;;43.77;41.17;;;;;;;17.47;100.00;100099.92;2061088;69;31129;-75
2021/08/07 22:06:05;;;;;;;43.23;40.37;;;;;;;17.44;100.00;100111.86;1950617;73;26654;-71